createdAt,value
2022-10-09T00:01:47.781Z,14.07
2022-10-09T00:04:18.452Z,16.40
2022-10-09T00:06:48.626Z,17.60
2022-10-09T00:09:20.030Z,17.10
2022-10-09T00:11:50.233Z,21.25
2022-10-09T00:14:20.247Z,19.27
2022-10-09T00:16:50.474Z,20.45
2022-10-09T00:19:20.521Z,20.55
2022-10-09T00:21:50.453Z,19.17
2022-10-09T00:24:20.689Z,19.85
2022-10-09T00:26:50.737Z,19.13
2022-10-09T00:29:20.944Z,18.25
2022-10-09T00:31:52.258Z,19.60
2022-10-09T00:34:22.583Z,16.98
2022-10-09T00:36:52.959Z,18.52
2022-10-09T00:39:23.008Z,18.08
2022-10-09T00:41:52.972Z,17.35
2022-10-09T00:44:52.800Z,20.15
2022-10-09T00:47:51.302Z,20.58
2022-10-09T00:50:26.748Z,22.20
2022-10-09T00:52:59.186Z,19.13
2022-10-09T00:55:30.192Z,21.02
2022-10-09T00:58:01.509Z,21.70
2022-10-09T01:00:31.862Z,19.30
2022-10-09T01:03:02.071Z,21.08
2022-10-09T01:05:46.423Z,23.85
2022-10-09T01:08:25.908Z,21.17
2022-10-09T01:11:14.094Z,21.83
2022-10-09T01:13:59.576Z,24.02
2022-10-09T01:16:41.017Z,22.65
2022-10-09T01:19:43.631Z,22.98
2022-10-09T01:22:26.006Z,24.50
2022-10-09T01:25:15.120Z,23.85
2022-10-09T01:27:45.422Z,24.00
2022-10-09T01:30:15.768Z,23.35
2022-10-09T01:32:50.206Z,22.98
2022-10-09T01:35:20.767Z,26.38
2022-10-09T01:37:51.073Z,25.33
2022-10-09T01:40:21.150Z,23.60
2022-10-09T01:42:51.448Z,28.42
2022-10-09T01:45:21.551Z,23.92
2022-10-09T01:47:51.782Z,23.85
2022-10-09T01:50:27.550Z,23.85
2022-10-09T01:55:41.279Z,24.00
2022-10-09T01:58:24.634Z,22.40
2022-10-09T02:01:09.339Z,25.10
2022-10-09T02:03:40.953Z,22.90
2022-10-09T02:06:12.579Z,23.10
2022-10-09T02:08:42.729Z,24.10
2022-10-09T02:11:13.410Z,28.85
2022-10-09T02:13:43.542Z,19.90
2022-10-09T02:16:36.152Z,27.98
2022-10-09T02:19:26.973Z,29.88
2022-10-09T02:22:14.726Z,25.17
2022-10-09T02:24:44.788Z,32.08
2022-10-09T02:27:15.083Z,29.83
2022-10-09T02:29:45.591Z,33.55
2022-10-09T02:32:15.601Z,46.00
2022-10-09T02:34:45.524Z,71.45
2022-10-09T02:37:15.436Z,136.35
2022-10-09T02:39:45.675Z,126.57
2022-10-09T02:42:15.648Z,92.15
2022-10-09T02:44:46.309Z,114.22
2022-10-09T02:47:16.422Z,99.65
2022-10-09T02:49:46.403Z,112.68
2022-10-09T02:52:16.361Z,80.38
2022-10-09T02:54:46.547Z,72.57
2022-10-09T02:57:16.481Z,89.43
2022-10-09T02:59:48.591Z,74.05
2022-10-09T03:02:18.805Z,86.90
2022-10-09T03:04:48.960Z,84.50
2022-10-09T03:07:19.476Z,71.15
2022-10-09T03:09:49.901Z,76.00
2022-10-09T03:12:22.783Z,79.95
2022-10-09T03:14:53.093Z,77.28
2022-10-09T03:17:23.109Z,69.28
2022-10-09T03:19:53.058Z,73.50
2022-10-09T03:22:24.089Z,70.60
2022-10-09T03:24:54.406Z,63.42
2022-10-09T03:27:24.441Z,64.68
2022-10-09T03:29:55.430Z,77.70
2022-10-09T03:32:25.806Z,72.72
2022-10-09T03:34:56.027Z,70.50
2022-10-09T03:37:27.144Z,69.20
2022-10-09T03:39:57.452Z,65.95
2022-10-09T03:42:27.673Z,66.18
2022-10-09T03:44:58.783Z,61.67
2022-10-09T03:47:28.838Z,58.28
2022-10-09T03:49:58.952Z,62.17
2022-10-09T03:52:28.854Z,58.10
2022-10-09T03:54:58.880Z,55.33
2022-10-09T03:57:29.169Z,60.60
2022-10-09T03:59:59.416Z,59.05
2022-10-09T04:02:29.585Z,55.33
2022-10-09T04:04:59.881Z,47.70
2022-10-09T04:07:30.362Z,44.47
2022-10-09T04:10:00.368Z,51.75
2022-10-09T04:12:30.418Z,51.70
2022-10-09T04:15:00.678Z,55.53
2022-10-09T04:17:30.708Z,50.33
2022-10-09T04:20:00.681Z,44.63
2022-10-09T04:22:30.684Z,57.20
2022-10-09T04:25:00.652Z,55.15
2022-10-09T04:27:30.807Z,49.78
2022-10-09T04:30:00.987Z,50.85
2022-10-09T04:32:31.206Z,52.75
2022-10-09T04:35:01.418Z,44.90
2022-10-09T04:37:31.494Z,56.95
2022-10-09T04:40:01.393Z,42.45
2022-10-09T04:42:31.618Z,46.60
2022-10-09T04:45:01.614Z,54.25
2022-10-09T04:47:32.279Z,48.92
2022-10-09T04:50:02.617Z,42.20
2022-10-09T04:52:32.661Z,42.58
2022-10-09T04:55:02.651Z,35.45
2022-10-09T04:57:32.729Z,42.13
2022-10-09T05:00:02.888Z,35.47
2022-10-09T05:02:33.235Z,37.35
2022-10-09T05:05:03.374Z,43.72
2022-10-09T05:07:33.751Z,45.63
2022-10-09T05:10:03.702Z,38.55
2022-10-09T05:12:33.790Z,42.95
2022-10-09T05:15:03.716Z,38.58
2022-10-09T05:17:33.970Z,39.80
2022-10-09T05:20:03.960Z,42.78
2022-10-09T05:22:33.903Z,39.33
2022-10-09T05:25:03.851Z,35.15
2022-10-09T05:27:33.810Z,43.40
2022-10-09T05:30:03.837Z,30.35
2022-10-09T05:32:33.909Z,34.55
2022-10-09T05:35:05.587Z,35.47
2022-10-09T05:37:35.708Z,30.45
2022-10-09T05:40:06.089Z,31.85
2022-10-09T05:42:36.073Z,33.05
2022-10-09T05:45:06.228Z,29.60
2022-10-09T05:47:36.421Z,31.00
2022-10-09T05:50:06.972Z,30.83
2022-10-09T05:52:37.779Z,31.23
2022-10-09T05:55:08.710Z,33.22
2022-10-09T05:57:38.719Z,24.23
2022-10-09T06:00:09.483Z,23.02
2022-10-09T06:02:42.040Z,22.05
2022-10-09T06:05:12.598Z,26.30
2022-10-09T06:07:43.174Z,24.10
2022-10-09T06:10:13.154Z,25.35
2022-10-09T06:12:43.858Z,25.20
2022-10-09T06:15:14.226Z,22.58
2022-10-09T06:17:44.223Z,24.77
2022-10-09T06:20:14.212Z,25.02
2022-10-09T06:22:44.117Z,23.23
2022-10-09T06:25:14.100Z,21.92
2022-10-09T06:27:44.386Z,21.50
2022-10-09T06:30:14.614Z,20.13
2022-10-09T06:32:44.540Z,23.05
2022-10-09T06:35:14.501Z,22.08
2022-10-09T06:37:44.528Z,21.88
2022-10-09T06:40:14.751Z,20.67
2022-10-09T06:42:44.758Z,16.08
2022-10-09T06:45:19.943Z,18.60
2022-10-09T06:47:50.190Z,19.63
2022-10-09T06:50:20.715Z,18.35
2022-10-09T06:52:51.337Z,18.85
2022-10-09T06:55:24.113Z,15.30
2022-10-09T06:57:58.005Z,20.23
2022-10-09T07:00:28.221Z,22.52
2022-10-09T07:02:58.490Z,15.07
2022-10-09T07:05:28.471Z,18.35
2022-10-09T07:07:58.994Z,17.85
2022-10-09T07:10:29.372Z,18.42
2022-10-09T07:12:59.450Z,15.52
2022-10-09T07:15:29.890Z,17.45
2022-10-09T07:17:59.986Z,16.45
2022-10-09T07:20:29.905Z,16.83
2022-10-09T07:22:59.825Z,15.20
2022-10-09T07:25:29.770Z,16.58
2022-10-09T07:27:59.714Z,17.02
2022-10-09T07:30:29.642Z,16.38
2022-10-09T07:32:59.622Z,18.25
2022-10-09T07:35:29.569Z,16.65
2022-10-09T07:37:59.530Z,16.77
2022-10-09T07:40:29.731Z,18.05
2022-10-09T07:42:59.693Z,14.45
2022-10-09T07:45:29.756Z,15.18
2022-10-09T07:47:59.702Z,15.65
2022-10-09T07:50:29.672Z,14.90
2022-10-09T07:52:59.574Z,15.75
2022-10-09T07:55:29.514Z,15.45
2022-10-09T07:57:59.442Z,12.90
2022-10-09T08:00:29.572Z,17.83
2022-10-09T08:02:59.720Z,16.15
2022-10-09T08:05:29.701Z,14.43
2022-10-09T08:08:00.263Z,16.95
2022-10-09T08:10:33.347Z,13.55
2022-10-09T08:13:03.517Z,13.63
2022-10-09T08:15:33.488Z,16.30
2022-10-09T08:18:03.448Z,13.75
2022-10-09T08:20:33.339Z,14.95
2022-10-09T08:23:03.315Z,11.98
2022-10-09T08:25:37.422Z,16.90
2022-10-09T08:28:07.761Z,11.48
2022-10-09T08:30:37.908Z,15.00
2022-10-09T08:33:07.847Z,14.35
2022-10-09T08:35:37.788Z,15.20
2022-10-09T08:38:07.721Z,12.23
2022-10-09T08:40:58.047Z,14.75
2022-10-09T08:43:35.076Z,14.82
2022-10-09T08:46:30.938Z,12.98
2022-10-09T08:49:01.151Z,12.82
2022-10-09T08:51:32.707Z,11.90
2022-10-09T08:54:06.796Z,10.77
2022-10-09T08:56:37.015Z,16.27
2022-10-09T08:59:06.973Z,13.35
2022-10-09T09:02:20.323Z,15.57
2022-10-09T09:05:08.980Z,18.42
2022-10-09T09:08:01.636Z,12.50
2022-10-09T09:10:45.190Z,16.77
2022-10-09T09:13:51.423Z,19.80
2022-10-09T09:16:25.502Z,17.73
2022-10-09T09:19:20.000Z,19.58
2022-10-09T09:21:52.434Z,22.48
2022-10-09T09:24:26.671Z,15.18
2022-10-09T09:26:58.127Z,19.23
2022-10-09T09:29:28.220Z,21.88
2022-10-09T09:32:00.658Z,21.13
2022-10-09T09:34:38.546Z,15.82
2022-10-09T09:37:09.575Z,22.85
2022-10-09T09:40:34.891Z,22.48
2022-10-09T09:42:30.114Z,19.67
2022-10-09T09:45:02.346Z,17.33
2022-10-09T09:47:40.847Z,20.88
2022-10-09T09:50:28.577Z,20.38
2022-10-09T09:53:07.696Z,13.60
2022-10-09T09:55:38.088Z,15.98
2022-10-09T09:58:09.231Z,22.90
2022-10-09T10:00:39.442Z,18.13
2022-10-09T10:03:17.212Z,20.52
2022-10-09T10:05:47.435Z,18.15
2022-10-09T10:08:28.758Z,27.33
2022-10-09T10:11:01.539Z,23.33
2022-10-09T10:13:39.943Z,21.85
2022-10-09T10:16:10.445Z,18.63
2022-10-09T10:18:42.383Z,16.35
2022-10-09T10:21:17.240Z,18.98
2022-10-09T10:23:47.474Z,12.70
2022-10-09T10:26:26.573Z,16.17
2022-10-09T10:29:20.368Z,20.25
2022-10-09T10:32:12.672Z,14.80
2022-10-09T10:34:54.216Z,16.60
2022-10-09T10:37:32.899Z,18.25
2022-10-09T10:40:27.061Z,13.77
2022-10-09T10:43:12.344Z,17.08
2022-10-09T10:45:45.695Z,16.33
2022-10-09T10:48:22.175Z,18.90
2022-10-09T10:51:15.520Z,20.25
2022-10-09T10:54:26.588Z,15.98
2022-10-09T10:57:14.498Z,15.90
2022-10-09T11:00:12.161Z,16.65
2022-10-09T11:03:16.072Z,17.73
2022-10-09T11:05:52.465Z,14.15
2022-10-09T11:08:47.300Z,16.42
2022-10-09T11:11:23.715Z,16.15
2022-10-09T11:17:11.133Z,14.82
2022-10-09T11:20:01.402Z,16.55
2022-10-09T11:22:54.228Z,18.35
2022-10-09T11:25:29.921Z,17.75
2022-10-09T11:28:11.111Z,17.67
2022-10-09T11:31:11.530Z,22.25
2022-10-09T11:33:56.931Z,28.45
2022-10-09T11:36:55.015Z,33.70
2022-10-09T11:39:26.879Z,29.30
2022-10-09T11:41:57.116Z,27.58
2022-10-09T11:44:27.043Z,27.08
2022-10-09T11:47:09.526Z,35.80
2022-10-09T11:50:01.463Z,31.95
2022-10-09T11:52:49.878Z,32.83
2022-10-09T11:55:25.165Z,29.40
2022-10-09T11:57:55.585Z,38.58
2022-10-09T12:00:35.863Z,37.67
2022-10-09T12:03:07.295Z,39.80
2022-10-09T12:05:44.935Z,41.72
2022-10-09T12:08:56.442Z,43.72
2022-10-09T12:11:27.184Z,38.92
2022-10-09T12:14:01.967Z,38.72
2022-10-09T12:16:41.378Z,39.83
2022-10-09T12:19:33.204Z,37.67
2022-10-09T12:22:30.896Z,40.25
2022-10-09T12:25:05.928Z,42.90
2022-10-09T12:27:40.028Z,42.27
2022-10-09T12:30:16.158Z,41.50
2022-10-09T12:33:00.535Z,38.80
2022-10-09T12:35:40.699Z,44.47
2022-10-09T12:38:32.675Z,47.25
2022-10-09T12:41:04.967Z,42.85
2022-10-09T12:43:35.240Z,40.88
2022-10-09T12:46:05.382Z,45.10
2022-10-09T12:48:41.861Z,44.13
2022-10-09T12:51:38.256Z,50.17
2022-10-09T12:54:11.778Z,44.53
2022-10-09T12:56:42.285Z,42.60
2022-10-09T12:59:12.848Z,44.95
2022-10-09T13:01:43.329Z,41.58
2022-10-09T13:04:33.000Z,48.33
2022-10-09T13:07:07.568Z,46.58
2022-10-09T13:09:39.742Z,44.28
2022-10-09T13:12:13.649Z,43.60
2022-10-09T13:14:44.835Z,45.78
2022-10-09T13:17:40.933Z,48.85
2022-10-09T13:20:14.187Z,44.45
2022-10-09T13:23:04.513Z,45.78
2022-10-09T13:25:42.963Z,50.08
2022-10-09T13:28:15.190Z,43.85
2022-10-09T13:30:45.369Z,49.30
2022-10-09T13:33:15.890Z,42.17
2022-10-09T13:35:46.400Z,43.40
2022-10-09T13:38:18.494Z,51.13
2022-10-09T13:40:48.921Z,52.10
2022-10-09T13:43:23.988Z,53.45
2022-10-09T13:45:54.911Z,51.15
2022-10-09T13:48:26.807Z,49.38
2022-10-09T13:51:00.287Z,50.17
2022-10-09T13:53:30.486Z,49.83
2022-10-09T13:56:01.151Z,47.72
2022-10-09T13:58:32.454Z,50.65
2022-10-09T14:01:02.753Z,50.75
2022-10-09T14:03:33.122Z,53.80
2022-10-09T14:06:04.906Z,53.13
2022-10-09T14:08:35.156Z,48.30
2022-10-09T14:11:05.615Z,49.55
2022-10-09T14:13:36.302Z,52.55
2022-10-09T14:16:07.649Z,53.05
2022-10-09T14:18:37.843Z,52.22
2022-10-09T14:21:15.248Z,53.05
2022-10-09T14:23:46.018Z,51.28
2022-10-09T14:26:16.001Z,51.38
2022-10-09T14:28:46.006Z,52.90
2022-10-09T14:31:16.080Z,54.03
2022-10-09T14:33:49.436Z,52.65
2022-10-09T14:36:21.292Z,52.25
2022-10-09T14:38:51.472Z,48.75
2022-10-09T14:41:21.782Z,52.13
2022-10-09T14:43:57.964Z,51.50
2022-10-09T14:46:29.208Z,53.28
2022-10-09T14:49:00.226Z,56.53
2022-10-09T14:51:34.799Z,54.95
2022-10-09T14:54:07.523Z,56.92
2022-10-09T14:56:37.605Z,60.08
2022-10-09T14:59:07.766Z,58.10
2022-10-09T15:01:37.803Z,60.58
2022-10-09T15:04:08.321Z,61.97
2022-10-09T15:06:38.545Z,67.72
2022-10-09T15:09:08.421Z,68.50
2022-10-09T15:11:38.579Z,63.85
2022-10-09T15:14:09.106Z,62.05
2022-10-09T15:16:39.292Z,66.80
2022-10-09T15:19:09.280Z,63.60
2022-10-09T15:21:39.209Z,61.80
2022-10-09T15:24:09.210Z,67.88
2022-10-09T15:26:39.524Z,64.38
2022-10-09T15:29:09.841Z,62.63
2022-10-09T15:31:41.818Z,61.70
2022-10-09T15:34:15.906Z,57.67
2022-10-09T15:36:47.133Z,61.38
2022-10-09T15:39:17.448Z,63.33
2022-10-09T15:41:47.654Z,63.42
2022-10-09T15:44:19.859Z,60.47
2022-10-09T15:46:50.697Z,60.25
2022-10-09T15:49:21.032Z,61.85
2022-10-09T15:51:50.970Z,62.83
2022-10-09T15:54:20.903Z,60.30
2022-10-09T15:56:50.948Z,67.03
2022-10-09T15:59:21.277Z,60.85
2022-10-09T16:01:51.551Z,58.90
2022-10-09T16:04:21.742Z,61.42
2022-10-09T16:06:51.751Z,59.17
2022-10-09T16:09:21.905Z,69.32
2022-10-09T16:11:52.101Z,60.85
2022-10-09T16:14:22.662Z,60.33
2022-10-09T16:16:52.918Z,64.45
2022-10-09T16:19:23.043Z,61.10
2022-10-09T16:21:53.234Z,66.00
2022-10-09T16:24:23.324Z,57.60
2022-10-09T16:26:53.257Z,58.63
2022-10-09T16:29:23.425Z,60.25
2022-10-09T16:31:53.614Z,63.63
2022-10-09T16:34:23.647Z,61.30
2022-10-09T16:36:53.845Z,62.45
2022-10-09T16:39:24.887Z,55.47
2022-10-09T16:41:55.267Z,61.22
2022-10-09T16:44:25.331Z,61.25
2022-10-09T16:46:55.583Z,57.72
2022-10-09T16:49:25.648Z,58.13
2022-10-09T16:51:55.564Z,62.05
2022-10-09T16:54:25.606Z,58.90
2022-10-09T16:56:55.539Z,54.67
2022-10-09T16:59:25.479Z,60.70
2022-10-09T17:01:56.326Z,59.65
2022-10-09T17:04:26.556Z,59.25
2022-10-09T17:06:56.594Z,59.05
2022-10-09T17:09:26.610Z,62.13
2022-10-09T17:11:56.511Z,64.55
2022-10-09T17:14:26.971Z,63.30
2022-10-09T17:16:57.141Z,66.30
2022-10-09T17:19:27.284Z,63.25
2022-10-09T17:21:57.612Z,64.95
2022-10-09T17:24:28.785Z,64.07
2022-10-09T17:26:59.566Z,65.22
2022-10-09T17:29:29.832Z,65.63
2022-10-09T17:32:00.304Z,61.90
2022-10-09T17:34:30.398Z,62.03
2022-10-09T17:37:00.401Z,61.70
2022-10-09T17:39:30.722Z,66.57
2022-10-09T17:42:00.687Z,58.30
2022-10-09T17:44:33.177Z,61.03
2022-10-09T17:47:04.568Z,60.65
2022-10-09T17:49:34.673Z,62.70
2022-10-09T17:52:04.996Z,58.95
2022-10-09T17:54:34.992Z,62.88
2022-10-09T17:57:07.621Z,59.55
2022-10-09T17:59:38.316Z,63.10
2022-10-09T18:02:08.521Z,58.55
2022-10-09T18:04:38.466Z,63.67
2022-10-09T18:07:08.393Z,58.97
2022-10-09T18:09:38.426Z,58.47
2022-10-09T18:12:08.387Z,58.30
2022-10-09T18:14:38.997Z,58.72
2022-10-09T18:17:09.073Z,61.97
2022-10-09T18:19:39.335Z,57.40
2022-10-09T18:22:09.517Z,59.58
2022-10-09T18:24:39.465Z,58.75
2022-10-09T18:27:09.418Z,57.75
2022-10-09T18:29:39.469Z,56.80
2022-10-09T18:32:09.469Z,55.33
2022-10-09T18:34:40.698Z,55.38
2022-10-09T18:37:12.408Z,56.60
2022-10-09T18:39:42.463Z,57.85
2022-10-09T18:42:12.453Z,54.97
2022-10-09T18:44:44.057Z,54.45
2022-10-09T18:47:17.996Z,56.72
2022-10-09T18:49:50.465Z,55.25
2022-10-09T18:52:20.644Z,55.70
2022-10-09T18:54:54.130Z,55.08
2022-10-09T18:57:24.624Z,54.08
2022-10-09T18:59:55.531Z,54.67
2022-10-09T19:02:28.127Z,57.83
2022-10-09T19:04:59.094Z,55.03
2022-10-09T19:07:29.297Z,51.95
2022-10-09T19:09:59.282Z,55.33
2022-10-09T19:12:29.380Z,49.75
2022-10-09T19:14:59.838Z,56.53
2022-10-09T19:17:29.959Z,52.20
2022-10-09T19:19:59.941Z,50.85
2022-10-09T19:22:30.098Z,53.60
2022-10-09T19:25:00.127Z,51.25
2022-10-09T19:27:30.275Z,50.03
2022-10-09T19:30:00.258Z,47.17
2022-10-09T19:32:30.179Z,49.10
2022-10-09T19:35:00.564Z,53.13
2022-10-09T19:37:31.329Z,51.88
2022-10-09T19:40:01.619Z,49.30
2022-10-09T19:42:31.902Z,48.85
2022-10-09T19:45:02.125Z,48.25
2022-10-09T19:47:32.076Z,49.50
2022-10-09T19:50:02.088Z,45.33
2022-10-09T19:52:32.154Z,43.85
2022-10-09T19:55:02.120Z,46.30
2022-10-09T19:57:32.037Z,47.58
2022-10-09T20:00:01.994Z,45.08
2022-10-09T20:02:34.232Z,46.38
2022-10-09T20:05:04.598Z,44.33
2022-10-09T20:07:34.560Z,42.67
2022-10-09T20:10:05.183Z,42.47
2022-10-09T20:12:35.178Z,42.55
2022-10-09T20:15:06.133Z,42.08
2022-10-09T20:17:36.430Z,40.80
2022-10-09T20:20:07.292Z,40.78
2022-10-09T20:22:37.391Z,39.92
2022-10-09T20:25:07.967Z,39.65
2022-10-09T20:27:38.314Z,44.42
2022-10-09T20:30:09.114Z,41.10
2022-10-09T20:32:39.302Z,37.03
2022-10-09T20:35:09.912Z,39.70
2022-10-09T20:37:40.251Z,36.60
2022-10-09T20:40:10.898Z,39.35
2022-10-09T20:42:41.033Z,38.92
2022-10-09T20:45:11.160Z,40.13
2022-10-09T20:47:41.127Z,34.80
2022-10-09T20:50:11.770Z,32.25
2022-10-09T20:52:41.970Z,36.83
2022-10-09T20:55:12.139Z,36.05
2022-10-09T20:57:42.233Z,33.92
2022-10-09T21:00:12.843Z,32.78
2022-10-09T21:02:43.051Z,34.83
2022-10-09T21:05:13.038Z,34.17
2022-10-09T21:07:42.986Z,35.30
2022-10-09T21:10:13.214Z,33.10
2022-10-09T21:12:43.392Z,32.63
2022-10-09T21:15:13.862Z,35.60
2022-10-09T21:17:44.025Z,30.38
2022-10-09T21:20:14.045Z,31.45
2022-10-09T21:22:44.036Z,31.38
2022-10-09T21:25:13.992Z,27.25
2022-10-09T21:27:44.070Z,30.73
2022-10-09T21:30:14.969Z,34.40
2022-10-09T21:32:45.781Z,31.95
2022-10-09T21:35:15.791Z,31.05
2022-10-09T21:37:45.761Z,30.77
2022-10-09T21:40:15.705Z,30.55
2022-10-09T21:42:45.721Z,26.98
2022-10-09T21:45:15.751Z,30.20
2022-10-09T21:47:45.725Z,26.75
2022-10-09T21:50:15.736Z,27.98
2022-10-09T21:52:45.776Z,27.13
2022-10-09T21:55:15.940Z,27.85
2022-10-09T21:57:46.213Z,23.55
2022-10-09T22:00:16.429Z,27.45
2022-10-09T22:02:46.386Z,28.00
2022-10-09T22:05:16.328Z,24.65
2022-10-09T22:07:46.283Z,27.67
2022-10-09T22:10:16.232Z,24.75
2022-10-09T22:12:46.187Z,25.83
2022-10-09T22:15:17.020Z,26.00
2022-10-09T22:17:47.107Z,25.48
2022-10-09T22:20:17.296Z,23.60
2022-10-09T22:22:47.670Z,28.50
2022-10-09T22:25:18.175Z,26.10
2022-10-09T22:27:48.440Z,24.75
2022-10-09T22:30:18.583Z,23.63
2022-10-09T22:32:48.895Z,21.70
2022-10-09T22:35:19.450Z,24.65
2022-10-09T22:37:49.541Z,24.55
2022-10-09T22:40:19.910Z,24.00
2022-10-09T22:42:50.244Z,21.33
2022-10-09T22:45:20.344Z,23.33
2022-10-09T22:47:50.309Z,24.48
2022-10-09T22:50:20.346Z,21.52
2022-10-09T22:52:51.739Z,23.15
2022-10-09T22:55:22.404Z,25.02
2022-10-09T22:57:52.398Z,20.48
2022-10-09T23:00:22.359Z,22.25
2022-10-09T23:02:52.509Z,23.73
2022-10-09T23:05:24.709Z,19.77
2022-10-09T23:07:55.061Z,20.60
2022-10-09T23:10:25.203Z,23.02
2022-10-09T23:12:55.232Z,22.30
2022-10-09T23:15:25.756Z,21.85
2022-10-09T23:17:55.690Z,21.92
2022-10-09T23:20:25.824Z,22.02
2022-10-09T23:22:55.928Z,23.70
2022-10-09T23:25:25.919Z,22.85
2022-10-09T23:27:55.893Z,22.40
2022-10-09T23:30:25.810Z,25.08
2022-10-09T23:32:55.747Z,23.42
2022-10-09T23:35:25.972Z,22.33
2022-10-09T23:37:56.257Z,24.33
2022-10-09T23:40:26.163Z,19.67
2022-10-09T23:42:56.071Z,26.23
2022-10-09T23:45:26.041Z,27.55
2022-10-09T23:47:56.091Z,23.23
2022-10-09T23:50:26.065Z,24.23
2022-10-09T23:52:56.274Z,26.17
2022-10-09T23:55:26.431Z,30.00
2022-10-09T23:57:56.671Z,25.15
